Time;durP1;ratioP1;P1;durP2;ratioP2;P2;SDS_P1;SDS_P2;PMS_P1;PMS_P2;Temp;Humidity;BMP_temperature;BMP_pressure;BME280_temperature;BME280_humidity;BME280_pressure;Samples;Min_cycle;Max_cycle;Signal;HPM_P1;HPM_P2
2022/02/16 00:01:39;;;;;;;4.07;3.77;;;;;;;;;;5016863;28;20415;-47
2022/02/16 00:04:05;;;;;;;4.37;3.97;;;;;;;;;;5017933;28;20400;-47
2022/02/16 00:06:31;;;;;;;5.03;4.63;;;;;;;;;;5017278;28;20405;-47
2022/02/16 00:08:57;;;;;;;4.63;4.27;;;;;;;;;;5017520;28;20888;-48
2022/02/16 00:11:23;;;;;;;4.20;3.90;;;;;;;;;;5018077;28;20433;-47
2022/02/16 00:13:49;;;;;;;6.30;3.87;;;;;;;;;;5017272;28;20475;-47
2022/02/16 00:16:15;;;;;;;4.67;4.27;;;;;;;;;;5017013;28;20915;-46
2022/02/16 00:18:41;;;;;;;4.13;3.77;;;;;;;;;;5016752;28;20399;-46
2022/02/16 00:21:09;;;;;;;4.10;3.80;;;;;;;;;;5017251;28;20429;-47
2022/02/16 00:23:35;;;;;;;4.40;4.00;;;;;;;;;;5017016;28;20710;-47
2022/02/16 00:26:02;;;;;;;4.60;4.20;;;;;;;;;;5017009;28;20412;-49
2022/02/16 00:28:28;;;;;;;6.90;3.97;;;;;;;;;;5016733;28;20446;-46
2022/02/16 00:30:54;;;;;;;4.38;4.07;;;;;;;;;;5016015;28;20505;-47
2022/02/16 00:33:20;;;;;;;4.23;3.87;;;;;;;;;;5016727;28;20188;-47
2022/02/16 00:35:46;;;;;;;3.50;3.20;;;;;;;;;;5015945;28;20404;-47
2022/02/16 00:38:12;;;;;;;3.73;3.47;;;;;;;;;;5016697;28;20418;-47
2022/02/16 00:40:39;;;;;;;4.90;4.40;;;;;;;;;;5014936;28;20516;-46
2022/02/16 00:43:05;;;;;;;5.90;4.37;;;;;;;;;;5015864;28;20401;-46
2022/02/16 00:45:32;;;;;;;4.60;4.30;;;;;;;;;;5016341;28;20934;-46
2022/02/16 00:47:59;;;;;;;5.20;4.80;;;;;;;;;;5016764;28;20400;-48
2022/02/16 00:50:25;;;;;;;4.80;4.40;;;;;;;;;;5015414;28;20451;-47
2022/02/16 00:52:51;;;;;;;4.07;3.67;;;;;;;;;;5015332;28;20451;-47
2022/02/16 00:55:17;;;;;;;4.70;4.10;;;;;;;;;;5031830;22;20400;-47
2022/02/16 00:57:43;;;;;;;4.87;4.40;;;;;;;;;;5050639;28;20426;-46
2022/02/16 01:00:09;;;;;;;4.30;3.90;;;;;;;;;;5050260;28;20755;-46
2022/02/16 01:02:35;;;;;;;4.20;3.80;;;;;;;;;;5050656;28;20409;-46
2022/02/16 01:05:01;;;;;;;4.73;4.33;;;;;;;;;;5051000;28;20402;-46
2022/02/16 01:07:27;;;;;;;5.15;3.92;;;;;;;;;;5070680;28;21066;-46
2022/02/16 01:09:54;;;;;;;4.23;3.90;;;;;;;;;;5070362;28;20249;-46
2022/02/16 01:12:20;;;;;;;3.50;3.30;;;;;;;;;;5070603;28;20488;-46
2022/02/16 01:14:46;;;;;;;5.20;4.30;;;;;;;;;;5070761;28;20488;-46
2022/02/16 01:17:12;;;;;;;5.63;5.00;;;;;;;;;;5070758;28;20423;-46
2022/02/16 01:19:38;;;;;;;5.05;4.65;;;;;;;;;;5070644;28;20486;-46
2022/02/16 01:22:04;;;;;;;4.30;4.00;;;;;;;;;;5070735;28;20206;-46
2022/02/16 01:24:30;;;;;;;5.40;4.47;;;;;;;;;;5070484;28;20406;-46
2022/02/16 01:26:56;;;;;;;5.33;4.93;;;;;;;;;;5070493;28;20453;-46
2022/02/16 01:29:23;;;;;;;4.70;4.30;;;;;;;;;;5073390;28;20404;-46
2022/02/16 01:31:50;;;;;;;6.00;5.07;;;;;;;;;;5074192;28;20727;-46
2022/02/16 01:34:16;;;;;;;5.60;5.10;;;;;;;;;;5074147;28;20454;-46
2022/02/16 01:36:41;;;;;;;7.30;4.87;;;;;;;;;;5074213;28;20440;-46
2022/02/16 01:39:08;;;;;;;5.03;4.63;;;;;;;;;;5073762;28;20401;-46
2022/02/16 01:41:34;;;;;;;5.33;4.60;;;;;;;;;;5074148;28;20765;-46
2022/02/16 01:44:01;;;;;;;5.13;4.73;;;;;;;;;;5074016;28;20899;-47
2022/02/16 01:46:28;;;;;;;5.77;5.20;;;;;;;;;;5074050;28;20464;-45
2022/02/16 01:48:54;;;;;;;5.47;5.07;;;;;;;;;;5073775;28;20402;-46
2022/02/16 01:51:20;;;;;;;4.47;4.13;;;;;;;;;;5074031;28;20883;-46
2022/02/16 01:53:46;;;;;;;4.97;4.53;;;;;;;;;;5073588;28;20539;-46
2022/02/16 01:56:13;;;;;;;5.50;4.90;;;;;;;;;;5073587;28;20703;-46
2022/02/16 01:58:40;;;;;;;4.50;4.20;;;;;;;;;;5073851;28;20401;-45
2022/02/16 02:01:06;;;;;;;4.50;4.10;;;;;;;;;;5073470;28;20425;-46
2022/02/16 02:03:32;;;;;;;8.37;4.60;;;;;;;;;;5074005;28;20413;-45
2022/02/16 02:05:58;;;;;;;4.27;3.97;;;;;;;;;;5073449;28;20432;-46
2022/02/16 02:08:25;;;;;;;4.37;4.07;;;;;;;;;;5073238;28;20407;-45
2022/02/16 02:10:52;;;;;;;4.00;3.70;;;;;;;;;;5073359;28;20413;-46
2022/02/16 02:13:18;;;;;;;4.63;4.23;;;;;;;;;;5073496;28;20899;-46
2022/02/16 02:15:45;;;;;;;4.30;3.90;;;;;;;;;;5073435;28;20417;-45
2022/02/16 02:18:17;;;;;;;4.60;4.30;;;;;;;;;;5073500;28;20894;-45
2022/02/16 02:20:44;;;;;;;4.70;4.40;;;;;;;;;;5073224;28;20818;-45
2022/02/16 02:23:12;;;;;;;3.90;3.70;;;;;;;;;;5073540;28;20409;-46
2022/02/16 02:25:45;;;;;;;4.50;4.20;;;;;;;;;;5073390;28;20435;-45
2022/02/16 02:28:11;;;;;;;4.23;3.93;;;;;;;;;;5073365;28;20970;-45
2022/02/16 02:30:38;;;;;;;4.70;4.30;;;;;;;;;;5073080;28;20754;-45
2022/02/16 02:33:04;;;;;;;4.40;4.10;;;;;;;;;;5073000;28;20449;-45
2022/02/16 02:35:29;;;;;;;5.53;5.03;;;;;;;;;;5072945;28;20802;-45
2022/02/16 02:37:55;;;;;;;5.20;4.80;;;;;;;;;;5073323;28;20414;-45
2022/02/16 02:40:21;;;;;;;5.00;4.60;;;;;;;;;;5072639;28;20399;-45
2022/02/16 02:42:47;;;;;;;5.10;4.70;;;;;;;;;;5072927;28;20733;-45
2022/02/16 02:45:14;;;;;;;5.03;4.53;;;;;;;;;;5072852;28;20410;-46
2022/02/16 02:47:41;;;;;;;5.10;4.70;;;;;;;;;;5072764;28;20406;-45
2022/02/16 02:50:08;;;;;;;4.30;4.00;;;;;;;;;;5072643;28;20410;-45
2022/02/16 02:52:36;;;;;;;4.80;4.40;;;;;;;;;;5072709;28;20547;-45
2022/02/16 02:55:02;;;;;;;5.03;4.47;;;;;;;;;;5072736;28;20397;-45
2022/02/16 02:57:29;;;;;;;4.47;4.17;;;;;;;;;;5072308;28;20907;-45
2022/02/16 02:59:55;;;;;;;4.23;3.90;;;;;;;;;;5073014;28;20407;-45
2022/02/16 03:02:23;;;;;;;4.30;3.93;;;;;;;;;;5072528;28;20405;-45
2022/02/16 03:04:51;;;;;;;4.93;4.60;;;;;;;;;;5072627;28;20810;-45
2022/02/16 03:07:18;;;;;;;4.43;4.13;;;;;;;;;;5072400;28;20414;-45
2022/02/16 03:09:44;;;;;;;5.33;4.90;;;;;;;;;;5072236;28;20395;-45
2022/02/16 03:12:11;;;;;;;5.63;5.23;;;;;;;;;;5072217;28;20397;-46
2022/02/16 03:14:38;;;;;;;4.80;4.37;;;;;;;;;;5072314;28;20739;-45
2022/02/16 03:17:04;;;;;;;5.93;4.30;;;;;;;;;;5072411;28;20425;-45
2022/02/16 03:19:30;;;;;;;5.57;5.17;;;;;;;;;;5071637;28;20773;-45
2022/02/16 03:21:56;;;;;;;4.57;4.27;;;;;;;;;;5071366;28;20889;-45
2022/02/16 03:24:22;;;;;;;3.37;3.17;;;;;;;;;;5072039;28;20398;-45
2022/02/16 03:26:48;;;;;;;3.97;3.70;;;;;;;;;;5071883;28;20425;-45
2022/02/16 03:29:14;;;;;;;4.70;4.40;;;;;;;;;;5071856;28;20404;-45
2022/02/16 03:31:42;;;;;;;5.60;5.03;;;;;;;;;;5072011;28;20777;-47
2022/02/16 03:34:11;;;;;;;5.80;5.30;;;;;;;;;;5071971;28;20452;-44
2022/02/16 03:36:37;;;;;;;6.77;6.17;;;;;;;;;;5071823;28;20508;-46
2022/02/16 03:39:05;;;;;;;6.60;6.00;;;;;;;;;;5071670;28;20402;-45
2022/02/16 03:41:31;;;;;;;5.80;5.30;;;;;;;;;;5071771;28;20402;-46
2022/02/16 03:43:59;;;;;;;6.27;5.67;;;;;;;;;;5071876;28;20482;-46
2022/02/16 03:46:26;;;;;;;6.97;6.00;;;;;;;;;;5071758;28;20474;-45
2022/02/16 03:48:52;;;;;;;6.37;5.83;;;;;;;;;;5071433;28;20410;-48
2022/02/16 03:51:18;;;;;;;5.90;5.40;;;;;;;;;;5070983;28;20410;-46
2022/02/16 03:53:45;;;;;;;5.80;5.37;;;;;;;;;;5071554;28;20510;-44
2022/02/16 03:56:11;;;;;;;5.60;5.10;;;;;;;;;;5071376;28;20707;-45
2022/02/16 03:58:42;;;;;;;4.83;4.43;;;;;;;;;;5071426;28;20409;-45
2022/02/16 04:01:09;;;;;;;4.40;4.10;;;;;;;;;;5071304;28;20395;-45
2022/02/16 04:03:35;;;;;;;4.60;4.30;;;;;;;;;;5071472;28;20407;-45
2022/02/16 04:06:02;;;;;;;4.53;4.23;;;;;;;;;;5071672;28;20430;-45
2022/02/16 04:08:27;;;;;;;4.90;4.50;;;;;;;;;;5071222;28;20886;-45
2022/02/16 04:10:54;;;;;;;4.87;4.47;;;;;;;;;;5071079;28;20410;-45
2022/02/16 04:13:22;;;;;;;4.00;3.70;;;;;;;;;;5071334;28;20457;-46
2022/02/16 04:15:48;;;;;;;4.20;3.90;;;;;;;;;;5071161;28;20422;-45
2022/02/16 04:18:13;;;;;;;4.67;4.37;;;;;;;;;;5071388;28;20398;-45
2022/02/16 04:20:39;;;;;;;4.73;4.33;;;;;;;;;;5070905;28;20400;-45
2022/02/16 04:23:05;;;;;;;4.23;3.93;;;;;;;;;;5070971;28;20917;-45
2022/02/16 04:25:33;;;;;;;3.93;3.63;;;;;;;;;;5071050;28;20505;-45
2022/02/16 04:27:59;;;;;;;4.33;3.33;;;;;;;;;;5071222;28;20414;-45
2022/02/16 04:30:27;;;;;;;3.93;3.53;;;;;;;;;;5070837;28;20408;-45
2022/02/16 04:32:53;;;;;;;4.30;3.90;;;;;;;;;;5070896;28;20486;-45
2022/02/16 04:35:19;;;;;;;3.87;3.57;;;;;;;;;;5070823;28;20465;-44
2022/02/16 04:37:45;;;;;;;5.03;3.60;;;;;;;;;;5070864;28;20460;-45
2022/02/16 04:40:11;;;;;;;3.10;2.80;;;;;;;;;;5070831;28;20428;-45
2022/02/16 04:42:37;;;;;;;2.80;2.60;;;;;;;;;;5070906;28;20429;-45
2022/02/16 04:45:04;;;;;;;3.03;2.40;;;;;;;;;;5070743;28;20447;-47
2022/02/16 04:47:30;;;;;;;2.60;2.40;;;;;;;;;;5070898;28;20407;-45
2022/02/16 04:50:01;;;;;;;2.93;2.70;;;;;;;;;;5070574;28;20910;-45
2022/02/16 04:52:34;;;;;;;3.03;2.73;;;;;;;;;;5071212;28;20496;-45
2022/02/16 04:55:03;;;;;;;2.50;2.30;;;;;;;;;;5070507;28;20394;-45
2022/02/16 04:57:29;;;;;;;2.53;2.33;;;;;;;;;;5070705;28;20521;-45
2022/02/16 04:59:58;;;;;;;4.13;2.77;;;;;;;;;;5070545;28;20485;-45
2022/02/16 05:02:26;;;;;;;2.63;2.43;;;;;;;;;;5072417;28;20955;-45
2022/02/16 05:04:51;;;;;;;2.30;2.20;;;;;;;;;;5074814;28;20479;-45
2022/02/16 05:07:17;;;;;;;2.30;2.20;;;;;;;;;;5074089;28;20505;-45
2022/02/16 05:09:43;;;;;;;2.40;2.30;;;;;;;;;;5074545;28;20890;-45
2022/02/16 05:12:09;;;;;;;2.90;2.70;;;;;;;;;;5074710;28;20488;-46
2022/02/16 05:14:35;;;;;;;2.57;2.43;;;;;;;;;;5074654;28;20399;-45
2022/02/16 05:17:01;;;;;;;2.80;2.60;;;;;;;;;;5074539;28;20448;-45
2022/02/16 05:19:27;;;;;;;3.00;2.80;;;;;;;;;;5074757;28;20430;-45
2022/02/16 05:21:53;;;;;;;3.50;3.20;;;;;;;;;;5074695;28;20489;-45
2022/02/16 05:24:20;;;;;;;2.90;2.50;;;;;;;;;;5074604;28;20838;-45
2022/02/16 05:26:46;;;;;;;3.50;3.27;;;;;;;;;;5074566;28;20408;-45
2022/02/16 05:29:12;;;;;;;3.03;2.83;;;;;;;;;;5074516;28;20413;-46
2022/02/16 05:31:38;;;;;;;2.63;2.53;;;;;;;;;;5074286;28;20405;-45
2022/02/16 05:34:04;;;;;;;3.10;2.80;;;;;;;;;;5074050;28;20555;-45
2022/02/16 05:36:30;;;;;;;3.27;3.07;;;;;;;;;;5074162;28;20504;-45
2022/02/16 05:38:56;;;;;;;3.10;2.90;;;;;;;;;;5074155;28;20471;-45
2022/02/16 05:41:22;;;;;;;4.60;2.87;;;;;;;;;;5074247;28;20403;-46
2022/02/16 05:43:48;;;;;;;2.10;2.00;;;;;;;;;;5074058;28;20407;-45
2022/02/16 05:46:14;;;;;;;2.20;2.10;;;;;;;;;;5073963;28;20942;-45
2022/02/16 05:48:40;;;;;;;2.30;2.20;;;;;;;;;;5073875;28;20406;-46
2022/02/16 05:51:06;;;;;;;2.40;2.30;;;;;;;;;;5074076;28;20406;-45
2022/02/16 05:53:32;;;;;;;2.40;2.30;;;;;;;;;;5074105;28;20456;-45
2022/02/16 05:55:58;;;;;;;2.80;2.53;;;;;;;;;;5073654;28;20568;-45
2022/02/16 05:58:24;;;;;;;2.40;2.30;;;;;;;;;;5073810;28;20955;-45
2022/02/16 06:00:50;;;;;;;2.40;2.30;;;;;;;;;;5073844;28;20427;-47
2022/02/16 06:03:16;;;;;;;2.60;2.40;;;;;;;;;;5073072;28;20400;-45
2022/02/16 06:05:42;;;;;;;2.17;2.03;;;;;;;;;;5073258;28;20432;-45
2022/02/16 06:08:08;;;;;;;2.30;2.20;;;;;;;;;;5073354;28;20401;-46
2022/02/16 06:10:34;;;;;;;2.10;2.00;;;;;;;;;;5073234;28;20783;-46
2022/02/16 06:13:01;;;;;;;2.67;2.57;;;;;;;;;;5074686;28;20972;-45
2022/02/16 06:15:29;;;;;;;2.47;2.37;;;;;;;;;;5072673;28;20437;-46
2022/02/16 06:17:55;;;;;;;14.40;2.60;;;;;;;;;;5073382;28;20491;-45
2022/02/16 06:20:22;;;;;;;2.63;2.53;;;;;;;;;;5073370;28;20460;-45
2022/02/16 06:22:48;;;;;;;2.73;2.43;;;;;;;;;;5073488;28;20406;-45
2022/02/16 06:25:14;;;;;;;2.10;2.00;;;;;;;;;;5073314;28;20405;-45
2022/02/16 06:27:40;;;;;;;1.80;1.70;;;;;;;;;;5073150;28;20596;-46
2022/02/16 06:30:07;;;;;;;2.03;1.93;;;;;;;;;;5072744;28;20958;-44
2022/02/16 06:32:33;;;;;;;1.80;1.70;;;;;;;;;;5072905;28;20851;-45
2022/02/16 06:34:59;;;;;;;1.87;1.77;;;;;;;;;;5073061;28;20405;-45
2022/02/16 06:37:25;;;;;;;1.70;1.60;;;;;;;;;;5073085;28;20398;-45
2022/02/16 06:39:51;;;;;;;1.80;1.70;;;;;;;;;;5072826;28;20813;-47
2022/02/16 06:42:17;;;;;;;1.90;1.80;;;;;;;;;;5072773;28;20410;-45
2022/02/16 06:44:43;;;;;;;1.87;1.77;;;;;;;;;;5072908;28;20437;-45
2022/02/16 06:47:09;;;;;;;1.50;1.40;;;;;;;;;;5072781;28;20920;-45
2022/02/16 06:49:35;;;;;;;1.60;1.50;;;;;;;;;;5072633;28;20406;-45
2022/02/16 06:52:01;;;;;;;2.57;1.57;;;;;;;;;;5072654;28;20944;-44
2022/02/16 06:54:27;;;;;;;1.70;1.60;;;;;;;;;;5072854;28;20451;-45
2022/02/16 06:56:53;;;;;;;1.63;1.53;;;;;;;;;;5049809;22;20498;-45
2022/02/16 06:59:19;;;;;;;1.70;1.60;;;;;;;;;;5012710;28;20978;-45
2022/02/16 07:01:45;;;;;;;1.87;1.77;;;;;;;;;;5013097;28;20409;-45
2022/02/16 07:04:11;;;;;;;4.20;1.60;;;;;;;;;;5013053;28;20421;-45
2022/02/16 07:06:37;;;;;;;1.47;1.37;;;;;;;;;;5012815;28;20428;-45
2022/02/16 07:09:03;;;;;;;1.90;1.80;;;;;;;;;;5012593;28;20456;-44
2022/02/16 07:11:32;;;;;;;1.90;1.80;;;;;;;;;;5013056;28;20974;-45
2022/02/16 07:13:58;;;;;;;1.97;1.87;;;;;;;;;;5012813;28;20874;-45
2022/02/16 07:16:24;;;;;;;1.63;1.53;;;;;;;;;;5012528;28;20421;-44
2022/02/16 07:18:50;;;;;;;1.70;1.60;;;;;;;;;;5012444;28;20402;-45
2022/02/16 07:21:18;;;;;;;2.37;1.77;;;;;;;;;;5012254;28;20400;-45
2022/02/16 07:23:46;;;;;;;1.90;1.80;;;;;;;;;;5012398;28;20679;-45
2022/02/16 07:26:12;;;;;;;1.77;1.67;;;;;;;;;;5011466;28;20438;-44
2022/02/16 07:28:38;;;;;;;2.10;2.00;;;;;;;;;;5012086;28;20894;-45
2022/02/16 07:31:04;;;;;;;1.73;1.63;;;;;;;;;;5012404;28;20405;-45
2022/02/16 07:33:30;;;;;;;1.70;1.60;;;;;;;;;;5012237;28;20489;-44
2022/02/16 07:35:56;;;;;;;2.00;1.90;;;;;;;;;;5012204;28;20465;-45
2022/02/16 07:38:23;;;;;;;1.70;1.60;;;;;;;;;;5012131;28;20803;-45
2022/02/16 07:40:49;;;;;;;3.20;1.90;;;;;;;;;;5012002;28;20450;-45
2022/02/16 07:43:16;;;;;;;1.60;1.50;;;;;;;;;;5012101;28;20414;-44
2022/02/16 07:45:42;;;;;;;1.77;1.67;;;;;;;;;;5011951;28;20411;-44
2022/02/16 07:48:08;;;;;;;2.17;2.07;;;;;;;;;;5011978;28;20819;-45
2022/02/16 07:50:34;;;;;;;1.70;1.60;;;;;;;;;;5012254;28;20432;-44
2022/02/16 07:53:01;;;;;;;1.53;1.43;;;;;;;;;;5011748;28;20959;-45
2022/02/16 07:55:28;;;;;;;2.07;1.97;;;;;;;;;;5012206;28;20804;-44
2022/02/16 07:57:58;;;;;;;1.83;1.73;;;;;;;;;;5011901;28;20433;-45
2022/02/16 08:00:24;;;;;;;4.37;2.23;;;;;;;;;;5011904;28;20493;-45
2022/02/16 08:02:50;;;;;;;1.60;1.50;;;;;;;;;;5011927;28;20858;-44
2022/02/16 08:05:16;;;;;;;1.80;1.70;;;;;;;;;;5012060;28;20441;-45
2022/02/16 08:07:42;;;;;;;1.70;1.60;;;;;;;;;;5011916;28;20434;-44
2022/02/16 08:10:08;;;;;;;1.60;1.50;;;;;;;;;;5011570;28;20541;-44
2022/02/16 08:12:42;;;;;;;1.50;1.40;;;;;;;;;;5011771;28;20406;-44
2022/02/16 08:15:08;;;;;;;1.60;1.50;;;;;;;;;;5011407;28;20405;-44
2022/02/16 08:17:34;;;;;;;1.63;1.53;;;;;;;;;;5011494;28;20928;-44
2022/02/16 08:20:00;;;;;;;1.50;1.40;;;;;;;;;;5011343;28;20411;-45
2022/02/16 08:22:26;;;;;;;1.67;1.57;;;;;;;;;;5011563;28;20405;-45
2022/02/16 08:24:52;;;;;;;2.30;2.20;;;;;;;;;;5011251;28;20403;-45
2022/02/16 08:27:18;;;;;;;1.80;1.70;;;;;;;;;;5011283;28;20581;-45
2022/02/16 08:29:44;;;;;;;2.00;1.90;;;;;;;;;;5011110;28;20451;-45
2022/02/16 08:32:10;;;;;;;1.73;1.63;;;;;;;;;;5011224;28;20488;-44
2022/02/16 08:34:36;;;;;;;1.87;1.77;;;;;;;;;;5011194;28;20450;-45
2022/02/16 08:37:02;;;;;;;1.80;1.70;;;;;;;;;;5010997;28;20440;-45
2022/02/16 08:39:29;;;;;;;1.50;1.40;;;;;;;;;;5010752;28;20520;-44
2022/02/16 08:41:55;;;;;;;1.77;1.67;;;;;;;;;;5010092;28;20506;-45
2022/02/16 08:44:21;;;;;;;2.20;2.10;;;;;;;;;;5011092;28;20488;-44
2022/02/16 08:46:48;;;;;;;2.13;2.03;;;;;;;;;;5011512;28;20440;-44
2022/02/16 08:49:15;;;;;;;2.00;1.90;;;;;;;;;;5010150;28;20798;-45
2022/02/16 08:51:41;;;;;;;2.10;2.00;;;;;;;;;;5011613;28;20406;-45
2022/02/16 08:54:07;;;;;;;2.87;2.70;;;;;;;;;;5010973;28;20460;-44
2022/02/16 08:56:32;;;;;;;2.20;2.10;;;;;;;;;;5010894;28;20534;-44
2022/02/16 08:59:00;;;;;;;2.50;2.40;;;;;;;;;;5011142;28;20764;-44
2022/02/16 09:01:31;;;;;;;2.87;2.67;;;;;;;;;;5010863;28;20402;-44
2022/02/16 09:03:58;;;;;;;2.63;2.43;;;;;;;;;;5011394;28;20444;-44
2022/02/16 09:06:24;;;;;;;2.47;2.37;;;;;;;;;;5010738;28;20632;-44
2022/02/16 09:08:50;;;;;;;3.50;2.60;;;;;;;;;;5011157;28;20405;-44
2022/02/16 09:11:16;;;;;;;3.03;2.73;;;;;;;;;;5010955;28;20422;-45
2022/02/16 09:13:42;;;;;;;2.73;2.53;;;;;;;;;;5010876;28;21019;-44
2022/02/16 09:16:08;;;;;;;3.00;2.30;;;;;;;;;;5010882;28;20445;-44
2022/02/16 09:18:34;;;;;;;2.40;2.30;;;;;;;;;;5010882;28;20436;-44
2022/02/16 09:21:05;;;;;;;3.10;2.90;;;;;;;;;;5010331;28;20782;-45
2022/02/16 09:23:31;;;;;;;2.83;2.63;;;;;;;;;;5011083;28;20468;-44
2022/02/16 09:25:58;;;;;;;2.70;2.50;;;;;;;;;;5010798;28;20430;-44
2022/02/16 09:28:24;;;;;;;3.53;3.20;;;;;;;;;;5010638;28;20395;-44
2022/02/16 09:30:50;;;;;;;3.73;2.87;;;;;;;;;;5010643;28;20941;-44
2022/02/16 09:33:16;;;;;;;4.00;3.60;;;;;;;;;;5010913;28;20446;-44
2022/02/16 09:35:41;;;;;;;4.60;4.20;;;;;;;;;;5010746;28;20407;-44
2022/02/16 09:38:07;;;;;;;6.73;4.20;;;;;;;;;;5010561;28;20414;-44
2022/02/16 09:40:33;;;;;;;3.60;3.30;;;;;;;;;;5010424;28;20422;-44
2022/02/16 09:43:01;;;;;;;4.97;4.43;;;;;;;;;;5010635;28;20434;-44
2022/02/16 09:45:28;;;;;;;6.73;4.47;;;;;;;;;;5010861;28;20437;-45
2022/02/16 09:47:55;;;;;;;3.53;3.33;;;;;;;;;;5009414;28;20415;-44
2022/02/16 09:50:21;;;;;;;4.23;3.90;;;;;;;;;;5013330;28;20449;-44
2022/02/16 09:52:47;;;;;;;4.03;3.73;;;;;;;;;;5013844;28;20501;-44
2022/02/16 09:55:13;;;;;;;3.93;3.60;;;;;;;;;;5014169;28;20766;-45
2022/02/16 09:57:39;;;;;;;3.37;3.07;;;;;;;;;;5013911;28;20473;-44
2022/02/16 10:00:09;;;;;;;4.47;3.70;;;;;;;;;;5013987;28;20431;-44
2022/02/16 10:02:38;;;;;;;2.67;2.47;;;;;;;;;;5014257;28;20391;-45
2022/02/16 10:05:05;;;;;;;2.23;2.03;;;;;;;;;;5014223;28;20422;-44
2022/02/16 10:07:38;;;;;;;2.17;2.07;;;;;;;;;;5013834;28;20491;-44
2022/02/16 10:10:24;;;;;;;1.73;1.63;;;;;;;;;;5013980;28;20489;-44
2022/02/16 10:12:51;;;;;;;1.80;1.70;;;;;;;;;;5013966;28;20453;-44
2022/02/16 10:15:25;;;;;;;1.73;1.63;;;;;;;;;;5013780;28;20414;-44
2022/02/16 10:18:07;;;;;;;4.33;1.60;;;;;;;;;;5013384;28;20430;-44
2022/02/16 10:20:33;;;;;;;1.67;1.57;;;;;;;;;;5013712;28;20426;-44
2022/02/16 10:22:59;;;;;;;2.00;1.80;;;;;;;;;;5013836;28;20765;-44
2022/02/16 10:25:30;;;;;;;1.90;1.80;;;;;;;;;;5013600;28;20506;-44
2022/02/16 10:28:14;;;;;;;1.50;1.40;;;;;;;;;;5013597;28;20403;-44
2022/02/16 10:30:54;;;;;;;1.80;1.70;;;;;;;;;;5013272;28;20418;-44
2022/02/16 10:33:22;;;;;;;2.00;1.90;;;;;;;;;;5013297;28;20454;-44
2022/02/16 10:35:48;;;;;;;1.90;1.80;;;;;;;;;;5013308;28;20400;-44
2022/02/16 10:38:14;;;;;;;2.00;1.80;;;;;;;;;;5013348;28;20779;-44
2022/02/16 10:40:40;;;;;;;1.90;1.70;;;;;;;;;;5012974;28;20926;-44
2022/02/16 10:43:06;;;;;;;1.83;1.73;;;;;;;;;;5013192;28;20909;-44
2022/02/16 10:45:43;;;;;;;1.73;1.63;;;;;;;;;;5013184;28;20404;-44
2022/02/16 10:48:09;;;;;;;1.73;1.63;;;;;;;;;;5013602;28;20438;-44
2022/02/16 10:50:45;;;;;;;1.97;1.87;;;;;;;;;;5013029;28;20493;-44
2022/02/16 10:53:11;;;;;;;1.80;1.70;;;;;;;;;;5012865;28;20493;-44
2022/02/16 10:55:50;;;;;;;1.80;1.70;;;;;;;;;;5013292;28;20415;-44
2022/02/16 10:58:22;;;;;;;1.87;1.77;;;;;;;;;;5013507;28;20403;-44
2022/02/16 11:00:49;;;;;;;2.13;2.03;;;;;;;;;;5012768;28;20443;-44
2022/02/16 11:03:26;;;;;;;5.53;2.23;;;;;;;;;;5012275;28;20404;-45
2022/02/16 11:05:53;;;;;;;2.07;1.87;;;;;;;;;;5012764;28;20563;-45
2022/02/16 11:08:21;;;;;;;2.00;1.90;;;;;;;;;;5012792;28;20403;-44
2022/02/16 11:10:48;;;;;;;2.10;2.00;;;;;;;;;;5012110;28;20396;-44
2022/02/16 11:13:18;;;;;;;2.43;1.40;;;;;;;;;;5012569;28;21020;-44
2022/02/16 11:15:46;;;;;;;1.60;1.50;;;;;;;;;;5012590;28;20440;-44
2022/02/16 11:18:13;;;;;;;1.60;1.50;;;;;;;;;;5012457;28;20561;-44
2022/02/16 11:20:39;;;;;;;1.80;1.70;;;;;;;;;;5012371;28;20411;-44
2022/02/16 11:23:05;;;;;;;1.70;1.60;;;;;;;;;;5012413;28;20403;-44
2022/02/16 11:25:34;;;;;;;5.10;1.80;;;;;;;;;;5012588;28;20410;-44
2022/02/16 11:28:00;;;;;;;1.80;1.20;;;;;;;;;;5012773;28;20454;-44
2022/02/16 11:30:32;;;;;;;1.70;1.60;;;;;;;;;;5012149;28;20402;-44
2022/02/16 11:33:15;;;;;;;1.30;1.20;;;;;;;;;;5012418;28;20455;-45
2022/02/16 11:35:49;;;;;;;1.23;1.23;;;;;;;;;;5012209;28;20902;-45
2022/02/16 11:38:16;;;;;;;3.50;1.40;;;;;;;;;;5012396;28;20393;-45
2022/02/16 11:40:42;;;;;;;4.00;1.60;;;;;;;;;;5011883;28;20467;-45
2022/02/16 11:43:10;;;;;;;1.27;1.17;;;;;;;;;;5011993;28;20404;-45
2022/02/16 11:45:46;;;;;;;1.00;1.00;;;;;;;;;;5012270;28;20404;-45
2022/02/16 11:48:32;;;;;;;1.40;1.30;;;;;;;;;;5012335;28;20407;-45
2022/02/16 11:50:58;;;;;;;4.40;1.30;;;;;;;;;;5011938;28;20417;-45
2022/02/16 11:53:28;;;;;;;0.90;0.90;;;;;;;;;;5011795;28;20946;-45
2022/02/16 11:56:14;;;;;;;1.30;1.20;;;;;;;;;;5011700;28;20419;-44
2022/02/16 11:58:40;;;;;;;1.43;1.33;;;;;;;;;;5012078;28;20482;-44
2022/02/16 12:01:08;;;;;;;2.23;1.30;;;;;;;;;;5011723;28;20442;-44
2022/02/16 12:03:37;;;;;;;1.40;1.30;;;;;;;;;;5012178;28;20411;-45
2022/02/16 12:06:08;;;;;;;1.63;1.53;;;;;;;;;;5011307;28;20923;-45
2022/02/16 12:08:37;;;;;;;6.70;1.50;;;;;;;;;;5011711;28;20534;-44
2022/02/16 12:11:06;;;;;;;2.10;2.00;;;;;;;;;;5011430;28;20440;-44
2022/02/16 12:13:32;;;;;;;1.67;1.57;;;;;;;;;;5011222;28;20963;-44
2022/02/16 12:16:00;;;;;;;1.90;1.80;;;;;;;;;;5011557;28;20915;-45
2022/02/16 12:18:26;;;;;;;1.97;1.87;;;;;;;;;;5011429;28;20461;-44
2022/02/16 12:20:52;;;;;;;1.80;1.70;;;;;;;;;;5011228;28;20408;-44
2022/02/16 12:23:19;;;;;;;1.70;1.60;;;;;;;;;;5011362;28;20777;-45
2022/02/16 12:25:44;;;;;;;2.07;1.97;;;;;;;;;;5011306;28;20482;-45
2022/02/16 12:28:10;;;;;;;1.83;1.73;;;;;;;;;;5011887;28;20506;-45
2022/02/16 12:30:40;;;;;;;2.70;2.50;;;;;;;;;;5011246;28;20458;-45
2022/02/16 12:33:23;;;;;;;2.87;2.67;;;;;;;;;;5011080;28;20498;-45
2022/02/16 12:35:50;;;;;;;2.63;2.43;;;;;;;;;;5011462;28;20435;-45
2022/02/16 12:38:25;;;;;;;3.60;3.30;;;;;;;;;;5011276;28;20760;-45
2022/02/16 12:40:51;;;;;;;3.10;2.80;;;;;;;;;;5011227;28;20489;-45
2022/02/16 12:43:17;;;;;;;2.73;2.53;;;;;;;;;;5011184;28;20402;-45
2022/02/16 12:45:46;;;;;;;3.73;2.60;;;;;;;;;;5011332;28;20829;-45
2022/02/16 12:48:12;;;;;;;3.70;2.60;;;;;;;;;;5011078;28;20461;-45
2022/02/16 12:50:38;;;;;;;3.07;2.77;;;;;;;;;;5010964;28;20403;-45
2022/02/16 12:53:04;;;;;;;2.53;2.40;;;;;;;;;;5011024;28;20465;-45
2022/02/16 12:55:31;;;;;;;2.10;2.00;;;;;;;;;;5011037;28;20399;-45
2022/02/16 12:57:57;;;;;;;2.60;2.50;;;;;;;;;;5011397;28;20426;-46
2022/02/16 13:00:46;;;;;;;2.83;2.27;;;;;;;;;;5010867;28;20435;-44
2022/02/16 13:03:12;;;;;;;1.93;1.83;;;;;;;;;;5011058;28;20399;-45
2022/02/16 13:05:39;;;;;;;1.70;1.60;;;;;;;;;;5010387;28;20503;-45
2022/02/16 13:08:06;;;;;;;1.90;1.80;;;;;;;;;;5010973;28;20466;-45
2022/02/16 13:10:33;;;;;;;1.60;1.50;;;;;;;;;;5010727;28;20427;-44
2022/02/16 13:13:00;;;;;;;2.70;1.80;;;;;;;;;;5010621;28;21049;-45
2022/02/16 13:15:26;;;;;;;2.37;1.83;;;;;;;;;;5010612;28;20911;-45
2022/02/16 13:17:53;;;;;;;1.70;1.60;;;;;;;;;;5010658;28;20421;-46
2022/02/16 13:20:20;;;;;;;1.80;1.70;;;;;;;;;;5010708;28;20396;-44
2022/02/16 13:22:50;;;;;;;3.10;1.93;;;;;;;;;;5010790;28;20442;-44
2022/02/16 13:25:23;;;;;;;2.50;1.30;;;;;;;;;;5013493;28;20917;-44
2022/02/16 13:27:50;;;;;;;1.57;1.20;;;;;;;;;;5014632;28;20427;-45
2022/02/16 13:30:17;;;;;;;1.60;1.50;;;;;;;;;;5014546;28;20407;-45
2022/02/16 13:32:44;;;;;;;2.30;1.50;;;;;;;;;;5014498;28;20401;-45
2022/02/16 13:35:22;;;;;;;1.50;1.40;;;;;;;;;;5014774;28;20982;-44
2022/02/16 13:38:00;;;;;;;2.83;1.70;;;;;;;;;;5014451;28;20421;-44
2022/02/16 13:40:27;;;;;;;1.30;1.20;;;;;;;;;;5014514;28;20400;-45
2022/02/16 13:42:57;;;;;;;2.33;1.60;;;;;;;;;;5014433;28;20410;-44
2022/02/16 13:45:31;;;;;;;2.10;1.90;;;;;;;;;;5014456;28;20422;-44
2022/02/16 13:47:57;;;;;;;3.30;1.90;;;;;;;;;;5014341;28;20535;-44
2022/02/16 13:50:31;;;;;;;2.60;2.40;;;;;;;;;;5013892;28;20495;-44
2022/02/16 13:52:58;;;;;;;6.30;2.53;;;;;;;;;;5014064;28;20457;-44
2022/02/16 13:55:24;;;;;;;3.10;2.37;;;;;;;;;;5014403;28;20403;-45
2022/02/16 13:57:50;;;;;;;4.20;2.57;;;;;;;;;;5013768;28;20447;-44
2022/02/16 14:00:21;;;;;;;2.57;2.20;;;;;;;;;;5013968;28;20397;-44
2022/02/16 14:03:06;;;;;;;2.10;1.90;;;;;;;;;;5013797;28;20400;-44
2022/02/16 14:05:32;;;;;;;3.60;2.07;;;;;;;;;;5013934;28;20825;-44
2022/02/16 14:08:01;;;;;;;2.27;2.10;;;;;;;;;;5014000;28;20403;-45
2022/02/16 14:10:27;;;;;;;4.20;2.03;;;;;;;;;;5013641;28;21025;-45
2022/02/16 14:12:53;;;;;;;4.60;2.50;;;;;;;;;;5013530;28;20520;-45
2022/02/16 14:15:19;;;;;;;4.10;1.90;;;;;;;;;;5013767;28;20776;-45
2022/02/16 14:17:46;;;;;;;2.37;2.17;;;;;;;;;;5014449;28;20424;-45
2022/02/16 14:20:12;;;;;;;3.50;2.10;;;;;;;;;;5017726;28;20823;-45
2022/02/16 14:22:39;;;;;;;4.07;2.10;;;;;;;;;;5014077;28;20884;-44
2022/02/16 14:25:05;;;;;;;2.87;2.30;;;;;;;;;;5013433;28;20407;-45
2022/02/16 14:27:31;;;;;;;3.93;2.27;;;;;;;;;;5013535;28;20918;-45
2022/02/16 14:29:57;;;;;;;4.97;2.70;;;;;;;;;;5016274;28;20780;-45
2022/02/16 14:32:23;;;;;;;6.60;2.30;;;;;;;;;;5016654;28;20891;-45
2022/02/16 14:34:51;;;;;;;5.70;2.43;;;;;;;;;;5017287;28;20490;-45
2022/02/16 14:37:18;;;;;;;10.40;2.80;;;;;;;;;;5017360;28;20431;-45
2022/02/16 14:39:44;;;;;;;6.20;2.90;;;;;;;;;;5017780;28;20442;-45
2022/02/16 14:42:10;;;;;;;8.83;2.83;;;;;;;;;;5017358;28;20407;-45
2022/02/16 14:44:36;;;;;;;11.17;2.97;;;;;;;;;;5016437;28;20412;-45